createdAt,value
2023-01-13T00:00:10.615Z,633.33
2023-01-13T00:00:21.680Z,632.74
2023-01-13T00:00:32.649Z,633.47
2023-01-13T00:00:43.574Z,633.24
2023-01-13T00:00:54.645Z,633.23
2023-01-13T00:01:06.597Z,633.30
2023-01-13T00:01:17.580Z,633.28
2023-01-13T00:01:28.661Z,632.83
2023-01-13T00:01:40.601Z,633.38
2023-01-13T00:01:51.580Z,634.12
2023-01-13T00:02:02.694Z,633.44
2023-01-13T00:02:14.580Z,633.50
2023-01-13T00:02:25.619Z,633.80
2023-01-13T00:02:36.633Z,633.78
2023-01-13T00:02:47.629Z,633.67
2023-01-13T00:02:59.621Z,633.80
2023-01-13T00:03:10.625Z,633.53
2023-01-13T00:03:21.604Z,633.90
2023-01-13T00:03:32.580Z,633.72
2023-01-13T00:03:43.663Z,634.10
2023-01-13T00:03:55.621Z,634.16
2023-01-13T00:04:06.601Z,633.91
2023-01-13T00:04:17.577Z,633.66
2023-01-13T00:04:28.695Z,633.71
2023-01-13T00:04:40.673Z,633.97
2023-01-13T00:04:52.675Z,633.88
2023-01-13T00:05:04.649Z,633.93
2023-01-13T00:05:16.584Z,633.58
2023-01-13T00:05:27.576Z,633.67
2023-01-13T00:05:38.591Z,634.25
2023-01-13T00:05:49.566Z,634.21
2023-01-13T00:06:00.655Z,634.34
2023-01-13T00:06:12.633Z,634.13
2023-01-13T00:06:23.607Z,634.08
2023-01-13T00:06:34.588Z,634.06
2023-01-13T00:06:45.571Z,633.89
2023-01-13T00:06:56.672Z,633.76
2023-01-13T00:07:08.603Z,634.10
2023-01-13T00:07:19.582Z,634.07
2023-01-13T00:07:30.582Z,634.11
2023-01-13T00:07:41.660Z,633.89
2023-01-13T00:07:53.620Z,633.92
2023-01-13T00:08:04.621Z,634.14
2023-01-13T00:08:15.609Z,633.88
2023-01-13T00:08:26.581Z,634.38
2023-01-13T00:08:37.590Z,634.26
2023-01-13T00:08:48.564Z,634.14
2023-01-13T00:08:59.566Z,634.16
2023-01-13T00:09:10.654Z,634.27
2023-01-13T00:09:22.603Z,634.34
2023-01-13T00:09:33.612Z,634.42
2023-01-13T00:09:44.582Z,634.30
2023-01-13T00:09:55.640Z,634.26
2023-01-13T00:10:07.593Z,634.25
2023-01-13T00:10:18.596Z,634.17
2023-01-13T00:10:29.584Z,634.15
2023-01-13T00:10:40.567Z,634.41
2023-01-13T00:10:51.651Z,634.27
2023-01-13T00:11:03.592Z,634.17
2023-01-13T00:11:14.565Z,634.13
2023-01-13T00:11:25.653Z,633.99
2023-01-13T00:11:37.600Z,633.82
2023-01-13T00:11:48.583Z,634.17
2023-01-13T00:11:59.580Z,634.35
2023-01-13T00:12:10.545Z,634.38
2023-01-13T00:12:21.632Z,634.17
2023-01-13T00:12:33.595Z,634.22
2023-01-13T00:12:44.584Z,634.08
2023-01-13T00:12:55.581Z,633.70
2023-01-13T00:13:06.654Z,634.29
2023-01-13T00:13:18.595Z,634.30
2023-01-13T00:13:29.593Z,634.44
2023-01-13T00:13:40.574Z,633.98
2023-01-13T00:13:51.659Z,634.24
2023-01-13T00:14:03.611Z,634.22
2023-01-13T00:14:14.594Z,634.34
2023-01-13T00:14:25.587Z,634.18
2023-01-13T00:14:36.578Z,634.31
2023-01-13T00:14:47.665Z,634.03
2023-01-13T00:14:59.609Z,634.23
2023-01-13T00:15:10.609Z,634.55
2023-01-13T00:15:21.579Z,634.47
2023-01-13T00:15:32.571Z,634.17
2023-01-13T00:15:43.647Z,634.26
2023-01-13T00:15:54.664Z,634.70
2023-01-13T00:16:06.664Z,634.56
2023-01-13T00:16:17.634Z,634.42
2023-01-13T00:16:29.597Z,634.56
2023-01-13T00:16:40.584Z,634.59
2023-01-13T00:16:51.608Z,634.58
2023-01-13T00:17:02.594Z,634.64
2023-01-13T00:17:13.572Z,634.60
2023-01-13T00:17:24.660Z,634.50
2023-01-13T00:17:36.597Z,634.83
2023-01-13T00:17:47.567Z,634.50
2023-01-13T00:17:58.651Z,634.46
2023-01-13T00:18:10.594Z,634.85
2023-01-13T00:18:21.562Z,634.45
2023-01-13T00:18:32.640Z,634.57
2023-01-13T00:18:44.589Z,634.18
2023-01-13T00:18:55.655Z,634.38
2023-01-13T00:19:07.604Z,635.05
2023-01-13T00:19:18.610Z,634.90
2023-01-13T00:19:29.580Z,634.84
2023-01-13T00:19:40.661Z,634.74
2023-01-13T00:19:52.596Z,634.61
2023-01-13T00:20:03.579Z,634.70
2023-01-13T00:20:14.563Z,634.82
2023-01-13T00:20:25.645Z,634.73
2023-01-13T00:20:37.594Z,634.65
2023-01-13T00:20:48.573Z,634.54
2023-01-13T00:20:59.560Z,635.13
2023-01-13T00:21:10.633Z,634.97
2023-01-13T00:21:21.603Z,634.85
2023-01-13T00:21:32.585Z,635.01
2023-01-13T00:21:43.574Z,635.00
2023-01-13T00:21:54.674Z,634.65
2023-01-13T00:22:06.611Z,634.73
2023-01-13T00:22:17.581Z,634.85
2023-01-13T00:22:28.656Z,635.23
2023-01-13T00:22:40.584Z,635.04
2023-01-13T00:22:51.570Z,635.20
2023-01-13T00:23:02.631Z,634.74
2023-01-13T00:23:13.620Z,634.71
2023-01-13T00:23:24.600Z,634.55
2023-01-13T00:23:35.574Z,634.81
2023-01-13T00:23:46.647Z,634.32
2023-01-13T00:23:57.615Z,634.57
2023-01-13T00:24:08.594Z,634.70
2023-01-13T00:24:19.613Z,634.36
2023-01-13T00:24:30.604Z,634.69
2023-01-13T00:24:41.583Z,634.79
2023-01-13T00:24:52.659Z,634.70
2023-01-13T00:25:04.692Z,634.64
2023-01-13T00:25:15.605Z,634.92
2023-01-13T00:25:26.590Z,634.87
2023-01-13T00:25:37.581Z,634.71
2023-01-13T00:25:48.575Z,634.79
2023-01-13T00:25:59.651Z,634.80
2023-01-13T00:26:11.577Z,634.71
2023-01-13T00:26:22.654Z,634.72
2023-01-13T00:26:34.601Z,634.92
2023-01-13T00:26:45.576Z,634.74
2023-01-13T00:26:56.561Z,634.77
2023-01-13T00:27:07.632Z,635.04
2023-01-13T00:27:19.611Z,634.85
2023-01-13T00:27:30.582Z,634.69
2023-01-13T00:27:41.562Z,634.71
2023-01-13T00:27:52.655Z,634.68
2023-01-13T00:28:04.597Z,634.27
2023-01-13T00:28:15.577Z,634.25
2023-01-13T00:28:26.571Z,634.41
2023-01-13T00:28:37.648Z,634.78
2023-01-13T00:28:49.565Z,634.57
2023-01-13T00:29:00.564Z,634.40
2023-01-13T00:29:11.650Z,634.41
2023-01-13T00:29:23.612Z,634.65
2023-01-13T00:29:34.589Z,634.33
2023-01-13T00:29:45.568Z,634.84
2023-01-13T00:29:56.640Z,634.94
2023-01-13T00:30:07.628Z,634.88
2023-01-13T00:30:18.596Z,634.87
2023-01-13T00:30:29.580Z,634.83
2023-01-13T00:30:40.565Z,634.48
2023-01-13T00:30:51.678Z,634.64
2023-01-13T00:31:03.665Z,634.68
2023-01-13T00:31:15.664Z,634.90
2023-01-13T00:31:27.701Z,634.59
2023-01-13T00:31:38.598Z,634.67
2023-01-13T00:31:49.595Z,634.86
2023-01-13T00:32:00.570Z,634.94
2023-01-13T00:32:11.652Z,635.09
2023-01-13T00:32:23.596Z,634.98
2023-01-13T00:32:34.576Z,634.80
2023-01-13T00:32:45.693Z,634.99
2023-01-13T00:32:56.624Z,635.31
2023-01-13T00:33:07.604Z,635.17
2023-01-13T00:33:18.575Z,635.15
2023-01-13T00:33:29.660Z,635.02
2023-01-13T00:33:41.597Z,634.91
2023-01-13T00:33:52.592Z,635.10
2023-01-13T00:34:03.583Z,635.04
2023-01-13T00:34:14.649Z,635.28
2023-01-13T00:34:26.569Z,635.13
2023-01-13T00:34:37.567Z,635.08
2023-01-13T00:34:48.571Z,634.74
2023-01-13T00:34:59.557Z,634.89
2023-01-13T00:35:10.639Z,635.44
2023-01-13T00:35:22.576Z,635.81
2023-01-13T00:35:33.537Z,635.79
2023-01-13T00:35:44.600Z,635.62
2023-01-13T00:35:55.559Z,635.63
2023-01-13T00:36:06.541Z,635.38
2023-01-13T00:36:17.615Z,635.18
2023-01-13T00:36:28.591Z,635.24
2023-01-13T00:36:39.554Z,635.46
2023-01-13T00:36:50.629Z,635.59
2023-01-13T00:37:02.576Z,635.38
2023-01-13T00:37:13.536Z,635.53
2023-01-13T00:37:24.608Z,635.76
2023-01-13T00:37:35.576Z,635.24
2023-01-13T00:37:46.543Z,635.22
2023-01-13T00:37:57.552Z,634.98
2023-01-13T00:38:08.538Z,635.35
2023-01-13T00:38:19.616Z,635.09
2023-01-13T00:38:31.566Z,635.28
2023-01-13T00:38:42.538Z,635.32
2023-01-13T00:38:53.605Z,635.44
2023-01-13T00:39:04.574Z,635.41
2023-01-13T00:39:15.555Z,635.56
2023-01-13T00:39:26.636Z,635.71
2023-01-13T00:39:38.557Z,635.70
2023-01-13T00:39:49.538Z,635.56
2023-01-13T00:40:00.603Z,635.54
2023-01-13T00:40:11.575Z,635.77
2023-01-13T00:40:22.629Z,635.26
2023-01-13T00:40:33.588Z,634.48
2023-01-13T00:40:44.554Z,635.35
2023-01-13T00:40:55.622Z,635.83
2023-01-13T00:41:07.560Z,636.10
2023-01-13T00:41:18.618Z,635.46
2023-01-13T00:41:29.582Z,635.17
2023-01-13T00:41:40.555Z,635.88
2023-01-13T00:41:51.626Z,635.89
2023-01-13T00:42:02.590Z,635.45
2023-01-13T00:42:13.556Z,634.58
2023-01-13T00:42:24.615Z,635.73
2023-01-13T00:42:36.579Z,635.81
2023-01-13T00:42:47.557Z,635.17
2023-01-13T00:42:58.613Z,635.56
2023-01-13T00:43:10.554Z,635.61
2023-01-13T00:43:21.619Z,635.84
2023-01-13T00:43:33.539Z,635.49
2023-01-13T00:43:45.556Z,635.45
2023-01-13T00:43:56.622Z,635.41
2023-01-13T00:44:07.577Z,635.39
2023-01-13T00:44:18.526Z,635.43
2023-01-13T00:44:29.599Z,635.72
2023-01-13T00:44:40.564Z,635.40
2023-01-13T00:44:52.576Z,635.68
2023-01-13T00:45:04.589Z,635.83
2023-01-13T00:45:16.609Z,635.42
2023-01-13T00:45:28.599Z,635.37
2023-01-13T00:45:39.563Z,635.57
2023-01-13T00:45:50.632Z,635.80
2023-01-13T00:46:02.577Z,635.69
2023-01-13T00:46:13.577Z,635.57
2023-01-13T00:46:24.581Z,635.76
2023-01-13T00:46:35.606Z,635.97
2023-01-13T00:46:47.610Z,635.57
2023-01-13T00:46:59.593Z,636.28
2023-01-13T00:47:10.552Z,636.15
2023-01-13T00:47:21.624Z,635.78
2023-01-13T00:47:33.565Z,635.86
2023-01-13T00:47:44.627Z,635.95
2023-01-13T00:47:56.557Z,635.84
2023-01-13T00:48:07.628Z,635.92
2023-01-13T00:48:18.594Z,635.95
2023-01-13T00:48:29.578Z,635.82
2023-01-13T00:48:40.540Z,635.81
2023-01-13T00:48:51.678Z,636.27
2023-01-13T00:49:03.556Z,636.38
2023-01-13T00:49:14.536Z,636.34
2023-01-13T00:49:25.611Z,636.45
2023-01-13T00:49:36.573Z,636.17
2023-01-13T00:49:47.537Z,636.02
2023-01-13T00:49:58.612Z,636.15
2023-01-13T00:50:09.593Z,636.52
2023-01-13T00:50:20.575Z,636.60
2023-01-13T00:50:31.548Z,636.48
2023-01-13T00:50:42.612Z,636.76
2023-01-13T00:50:54.560Z,636.84
2023-01-13T00:51:05.534Z,636.53
2023-01-13T00:51:16.616Z,636.32
2023-01-13T00:51:28.565Z,636.62
2023-01-13T00:51:39.617Z,636.76
2023-01-13T00:51:50.589Z,636.51
2023-01-13T00:52:01.559Z,636.61
2023-01-13T00:52:12.531Z,636.83
2023-01-13T00:52:23.603Z,636.50
2023-01-13T00:52:34.575Z,636.82
2023-01-13T00:52:45.537Z,636.79
2023-01-13T00:52:56.608Z,636.60
2023-01-13T00:53:07.569Z,636.77
2023-01-13T00:53:18.539Z,636.34
2023-01-13T00:53:29.611Z,636.24
2023-01-13T00:53:40.577Z,636.81
2023-01-13T00:53:51.545Z,636.62
2023-01-13T00:54:02.625Z,636.80
2023-01-13T00:54:13.581Z,636.59
2023-01-13T00:54:24.551Z,636.25
2023-01-13T00:54:35.620Z,636.92
2023-01-13T00:54:46.587Z,636.82
2023-01-13T00:54:57.555Z,636.51
2023-01-13T00:55:08.556Z,636.65
2023-01-13T00:55:19.638Z,636.49
2023-01-13T00:55:31.555Z,636.55
2023-01-13T00:55:42.617Z,636.74
2023-01-13T00:55:53.576Z,636.71
2023-01-13T00:56:04.555Z,636.82
2023-01-13T00:56:16.635Z,636.72
2023-01-13T00:56:39.874Z,636.94
2023-01-13T00:56:41.063Z,636.65
2023-01-13T00:56:50.591Z,636.48
2023-01-13T00:57:01.563Z,636.09
2023-01-13T00:57:12.539Z,636.36
2023-01-13T00:57:23.616Z,636.30
2023-01-13T00:57:34.573Z,636.37
2023-01-13T00:57:45.540Z,636.14
2023-01-13T00:57:57.555Z,636.39
2023-01-13T00:58:08.622Z,636.61
2023-01-13T00:58:19.590Z,636.58
2023-01-13T00:58:30.560Z,636.59
2023-01-13T00:58:41.565Z,636.69
2023-01-13T00:58:52.624Z,636.64
2023-01-13T00:59:03.593Z,636.47
2023-01-13T00:59:15.613Z,636.44
2023-01-13T00:59:27.543Z,636.51
2023-01-13T00:59:38.623Z,636.28
2023-01-13T00:59:49.807Z,636.44
2023-01-13T01:00:00.579Z,636.32
2023-01-13T01:00:11.579Z,636.59
2023-01-13T01:00:22.552Z,636.54
2023-01-13T01:00:33.649Z,636.63
2023-01-13T01:00:45.625Z,636.94
2023-01-13T01:00:57.632Z,637.16
2023-01-13T01:01:09.645Z,637.25
2023-01-13T01:01:20.688Z,637.13
2023-01-13T01:01:33.029Z,636.87
2023-01-13T01:01:43.779Z,637.19
2023-01-13T01:01:55.705Z,637.40
2023-01-13T01:02:06.735Z,637.50
2023-01-13T01:02:18.603Z,637.45
2023-01-13T01:02:29.621Z,637.66
2023-01-13T01:02:41.678Z,637.44
2023-01-13T01:02:52.559Z,637.26
2023-01-13T01:03:03.623Z,637.62
2023-01-13T01:03:14.595Z,637.48
2023-01-13T01:03:25.557Z,637.34
2023-01-13T01:03:36.620Z,637.28
2023-01-13T01:03:47.584Z,637.15
2023-01-13T01:03:58.550Z,637.16
2023-01-13T01:04:09.622Z,637.32
2023-01-13T01:04:20.592Z,637.12
2023-01-13T01:04:31.564Z,637.12
2023-01-13T01:04:42.615Z,637.32
2023-01-13T01:04:53.578Z,637.32
2023-01-13T01:05:04.558Z,637.50
2023-01-13T01:05:15.623Z,637.13
2023-01-13T01:05:27.566Z,637.40
2023-01-13T01:05:38.631Z,637.43
2023-01-13T01:05:49.592Z,637.39
2023-01-13T01:06:00.561Z,637.41
2023-01-13T01:06:11.537Z,637.59
2023-01-13T01:06:22.632Z,637.57
2023-01-13T01:06:34.556Z,637.56
2023-01-13T01:06:45.622Z,637.42
2023-01-13T01:06:56.599Z,636.84
2023-01-13T01:07:07.574Z,637.74
2023-01-13T01:07:18.536Z,637.42
2023-01-13T01:07:29.610Z,637.55
2023-01-13T01:07:40.588Z,637.68
2023-01-13T01:07:51.550Z,637.70
2023-01-13T01:08:02.617Z,637.54
2023-01-13T01:08:13.584Z,637.72
2023-01-13T01:08:24.560Z,637.73
2023-01-13T01:08:35.626Z,637.70
2023-01-13T01:08:47.535Z,637.86
2023-01-13T01:08:58.595Z,637.76
2023-01-13T01:09:09.557Z,637.54
2023-01-13T01:09:20.626Z,637.70
2023-01-13T01:09:32.607Z,637.37
2023-01-13T01:09:44.563Z,637.86
2023-01-13T01:09:55.563Z,637.80
2023-01-13T01:10:06.619Z,637.66
2023-01-13T01:10:17.580Z,637.89
2023-01-13T01:10:28.565Z,637.79
2023-01-13T01:10:39.610Z,637.73
2023-01-13T01:10:51.557Z,638.13
2023-01-13T01:11:02.564Z,638.15
2023-01-13T01:11:13.627Z,638.24
2023-01-13T01:11:25.569Z,638.28
2023-01-13T01:11:37.588Z,637.91
2023-01-13T01:11:48.560Z,637.99
2023-01-13T01:11:59.616Z,638.07
2023-01-13T01:12:10.588Z,637.95
2023-01-13T01:12:21.555Z,638.06
2023-01-13T01:12:32.537Z,638.05
2023-01-13T01:12:43.606Z,638.10
2023-01-13T01:12:54.577Z,637.78
2023-01-13T01:13:05.633Z,638.09
2023-01-13T01:13:17.556Z,638.32
2023-01-13T01:13:28.625Z,637.92
2023-01-13T01:13:39.659Z,637.90
2023-01-13T01:13:51.595Z,637.83
2023-01-13T01:14:02.574Z,638.07
2023-01-13T01:14:13.546Z,638.09
2023-01-13T01:14:24.547Z,637.65
2023-01-13T01:14:35.605Z,637.76
2023-01-13T01:14:47.632Z,637.94
2023-01-13T01:14:59.560Z,637.82
2023-01-13T01:15:10.537Z,638.00
2023-01-13T01:15:21.619Z,637.48
2023-01-13T01:15:32.589Z,637.57
2023-01-13T01:15:43.596Z,638.07
2023-01-13T01:15:54.610Z,637.88
2023-01-13T01:16:05.635Z,637.80
2023-01-13T01:16:17.613Z,637.66
2023-01-13T01:16:28.678Z,637.54
2023-01-13T01:16:39.584Z,637.60
2023-01-13T01:16:50.552Z,637.88
2023-01-13T01:17:02.569Z,637.41
2023-01-13T01:17:13.639Z,637.33
2023-01-13T01:17:25.590Z,637.38
2023-01-13T01:17:36.575Z,637.97
2023-01-13T01:17:47.536Z,637.95
2023-01-13T01:17:58.598Z,637.91
2023-01-13T01:18:09.561Z,637.56
2023-01-13T01:18:20.622Z,637.63
2023-01-13T01:18:31.586Z,637.71
2023-01-13T01:18:42.552Z,637.20
2023-01-13T01:18:53.619Z,638.29
2023-01-13T01:19:05.552Z,638.14
2023-01-13T01:19:17.694Z,637.98
2023-01-13T01:19:28.565Z,637.66
2023-01-13T01:19:39.628Z,637.90
2023-01-13T01:19:51.540Z,637.92
2023-01-13T01:20:02.621Z,637.97
2023-01-13T01:20:13.581Z,637.80
2023-01-13T01:20:24.557Z,637.76
2023-01-13T01:20:36.571Z,637.66
2023-01-13T01:20:47.531Z,637.59
2023-01-13T01:20:58.601Z,637.32
2023-01-13T01:21:09.574Z,637.92
2023-01-13T01:21:20.572Z,638.01
2023-01-13T01:21:31.544Z,637.73
2023-01-13T01:21:42.663Z,637.70
2023-01-13T01:21:54.614Z,637.29
2023-01-13T01:22:05.568Z,637.54
2023-01-13T01:22:16.550Z,637.64
2023-01-13T01:22:27.607Z,637.58
2023-01-13T01:22:38.575Z,637.68
2023-01-13T01:22:49.542Z,637.49
2023-01-13T01:23:00.619Z,637.53
2023-01-13T01:23:11.582Z,637.68
2023-01-13T01:23:22.545Z,637.91
2023-01-13T01:23:33.610Z,637.69
2023-01-13T01:23:44.584Z,637.49
2023-01-13T01:23:55.564Z,637.51
2023-01-13T01:24:06.537Z,637.54
2023-01-13T01:24:17.614Z,637.60
2023-01-13T01:24:28.601Z,637.91
2023-01-13T01:24:39.561Z,637.72
2023-01-13T01:24:50.636Z,637.66
2023-01-13T01:25:02.570Z,637.85
2023-01-13T01:25:13.586Z,637.55
2023-01-13T01:25:24.546Z,637.94
2023-01-13T01:25:35.636Z,637.18
2023-01-13T01:25:46.614Z,638.14
2023-01-13T01:25:58.572Z,638.32
2023-01-13T01:26:09.553Z,638.18
2023-01-13T01:26:20.544Z,638.02
2023-01-13T01:26:31.613Z,638.43
2023-01-13T01:26:42.573Z,638.11
2023-01-13T01:26:53.536Z,637.86
2023-01-13T01:27:04.627Z,638.38
2023-01-13T01:27:15.586Z,638.33
2023-01-13T01:27:26.558Z,638.27
2023-01-13T01:27:37.548Z,638.27
2023-01-13T01:27:48.614Z,638.36
2023-01-13T01:27:59.573Z,638.23
2023-01-13T01:28:10.556Z,638.06
2023-01-13T01:28:21.621Z,638.33
2023-01-13T01:28:33.558Z,638.04
2023-01-13T01:28:44.646Z,638.37
2023-01-13T01:28:56.574Z,638.45
2023-01-13T01:29:08.590Z,638.32
2023-01-13T01:29:19.559Z,637.94
2023-01-13T01:29:30.626Z,637.94
2023-01-13T01:29:42.541Z,637.85
2023-01-13T01:29:53.599Z,637.87
2023-01-13T01:30:04.565Z,638.28
2023-01-13T01:30:15.533Z,638.29
2023-01-13T01:30:26.597Z,638.07
2023-01-13T01:30:37.557Z,638.07
2023-01-13T01:30:48.624Z,637.80
2023-01-13T01:30:59.656Z,638.04
2023-01-13T01:31:10.621Z,638.34
2023-01-13T01:31:22.570Z,638.35
2023-01-13T01:31:33.656Z,638.22
2023-01-13T01:31:45.622Z,638.09
2023-01-13T01:31:57.579Z,637.96
2023-01-13T01:32:08.630Z,637.99
2023-01-13T01:32:20.574Z,638.29
2023-01-13T01:32:31.632Z,638.02
2023-01-13T01:32:42.595Z,637.96
2023-01-13T01:32:53.559Z,638.07
2023-01-13T01:33:04.624Z,638.19
2023-01-13T01:33:16.536Z,638.21
2023-01-13T01:33:27.588Z,638.37
2023-01-13T01:33:38.576Z,638.31
2023-01-13T01:33:49.541Z,638.14
2023-01-13T01:34:00.621Z,638.09
2023-01-13T01:34:11.577Z,638.00
2023-01-13T01:34:22.556Z,638.00
2023-01-13T01:34:33.618Z,637.91
2023-01-13T01:34:44.569Z,637.91
2023-01-13T01:34:55.551Z,637.85
2023-01-13T01:35:06.614Z,638.02
2023-01-13T01:35:17.594Z,638.21
2023-01-13T01:35:28.584Z,638.01
2023-01-13T01:35:39.563Z,638.16
2023-01-13T01:35:50.632Z,638.09
2023-01-13T01:36:01.597Z,638.12
2023-01-13T01:36:12.594Z,637.89
2023-01-13T01:36:23.570Z,637.93
2023-01-13T01:36:34.551Z,637.72
2023-01-13T01:36:45.630Z,637.58
2023-01-13T01:36:56.594Z,637.67
2023-01-13T01:37:07.554Z,637.81
2023-01-13T01:37:18.617Z,637.95
2023-01-13T01:37:30.635Z,637.89
2023-01-13T01:37:42.555Z,637.89
2023-01-13T01:37:53.628Z,637.67
2023-01-13T01:38:04.583Z,637.92
2023-01-13T01:38:16.599Z,638.09
2023-01-13T01:38:27.560Z,638.29
2023-01-13T01:38:38.624Z,638.41
2023-01-13T01:38:50.585Z,638.24
2023-01-13T01:39:01.620Z,638.07
2023-01-13T01:39:12.570Z,638.18
2023-01-13T01:39:23.539Z,638.23
2023-01-13T01:39:34.627Z,638.09
2023-01-13T01:39:45.588Z,638.19
2023-01-13T01:39:56.546Z,638.41
2023-01-13T01:40:07.611Z,638.58
2023-01-13T01:40:18.576Z,638.63
2023-01-13T01:40:29.581Z,638.29
2023-01-13T01:40:40.555Z,638.23
2023-01-13T01:40:51.616Z,637.97
2023-01-13T01:41:02.577Z,637.84
2023-01-13T01:41:13.552Z,638.02
2023-01-13T01:41:24.613Z,638.27
2023-01-13T01:41:35.569Z,638.37
2023-01-13T01:41:46.551Z,638.46
2023-01-13T01:41:57.612Z,638.44
2023-01-13T01:42:08.573Z,638.12
2023-01-13T01:42:19.548Z,638.24
2023-01-13T01:42:30.612Z,638.37
2023-01-13T01:42:41.571Z,638.27
2023-01-13T01:42:52.573Z,638.34
2023-01-13T01:43:03.550Z,638.10
2023-01-13T01:43:14.623Z,638.06
2023-01-13T01:43:25.589Z,638.15
2023-01-13T01:43:36.549Z,638.16
2023-01-13T01:43:47.611Z,638.15
2023-01-13T01:43:58.594Z,637.86
2023-01-13T01:44:09.589Z,637.93
2023-01-13T01:44:20.535Z,637.73
2023-01-13T01:44:31.594Z,638.21
2023-01-13T01:44:43.633Z,638.18
2023-01-13T01:44:54.594Z,638.28
2023-01-13T01:45:05.585Z,638.66
2023-01-13T01:45:16.562Z,639.12
2023-01-13T01:45:27.620Z,638.94
2023-01-13T01:45:39.638Z,638.75
2023-01-13T01:45:51.563Z,638.42
2023-01-13T01:46:02.631Z,638.39
2023-01-13T01:46:13.731Z,638.23
2023-01-13T01:46:25.633Z,638.20
2023-01-13T01:46:37.705Z,638.20
2023-01-13T01:46:48.647Z,638.20
2023-01-13T01:47:00.633Z,638.46
2023-01-13T01:47:12.571Z,638.36
2023-01-13T01:47:23.641Z,638.34
2023-01-13T01:47:35.575Z,638.31
2023-01-13T01:47:47.590Z,638.24
2023-01-13T01:47:58.576Z,638.34
2023-01-13T01:48:10.593Z,638.58
2023-01-13T01:48:21.551Z,638.44
2023-01-13T01:48:32.623Z,638.44
2023-01-13T01:48:43.592Z,638.52
2023-01-13T01:48:54.551Z,638.47
2023-01-13T01:49:06.567Z,638.46
2023-01-13T01:49:17.659Z,638.58
2023-01-13T01:49:29.581Z,638.63
2023-01-13T01:49:40.557Z,638.44
2023-01-13T01:49:51.619Z,638.70
2023-01-13T01:50:02.582Z,638.72
2023-01-13T01:50:14.573Z,638.60
2023-01-13T01:50:25.632Z,638.50
2023-01-13T01:50:37.556Z,638.61
2023-01-13T01:50:48.621Z,638.82
2023-01-13T01:50:59.591Z,638.61
2023-01-13T01:51:10.558Z,638.49
2023-01-13T01:51:21.629Z,638.55
2023-01-13T01:51:33.545Z,638.70
2023-01-13T01:51:44.617Z,638.50
2023-01-13T01:51:56.630Z,638.42
2023-01-13T01:52:07.594Z,638.97
2023-01-13T01:52:18.565Z,638.68
2023-01-13T01:52:29.619Z,638.73
2023-01-13T01:52:41.571Z,638.72
2023-01-13T01:52:52.550Z,638.14
2023-01-13T01:53:03.624Z,638.55
2023-01-13T01:53:15.554Z,638.57
2023-01-13T01:53:26.629Z,638.40
2023-01-13T01:53:37.590Z,638.22
2023-01-13T01:53:48.556Z,638.12
2023-01-13T01:53:59.623Z,638.32
2023-01-13T01:54:10.591Z,638.01
2023-01-13T01:54:21.553Z,637.86
2023-01-13T01:54:32.618Z,638.22
2023-01-13T01:54:43.576Z,638.20
2023-01-13T01:54:54.534Z,638.32
2023-01-13T01:55:05.620Z,638.54
2023-01-13T01:55:16.591Z,638.54
2023-01-13T01:55:27.574Z,638.87
2023-01-13T01:55:38.543Z,639.08
2023-01-13T01:55:49.591Z,639.12
2023-01-13T01:56:01.613Z,638.84
2023-01-13T01:56:12.572Z,639.17
2023-01-13T01:56:23.547Z,639.31
2023-01-13T01:56:34.618Z,639.21
2023-01-13T01:56:45.598Z,639.33
2023-01-13T01:56:56.555Z,638.76
2023-01-13T01:57:07.537Z,639.02
2023-01-13T01:57:18.599Z,639.27
2023-01-13T01:57:29.576Z,638.96
2023-01-13T01:57:40.570Z,639.02
2023-01-13T01:57:51.537Z,639.04
2023-01-13T01:58:02.615Z,639.04
2023-01-13T01:58:13.589Z,639.18
2023-01-13T01:58:24.553Z,639.03
2023-01-13T01:58:35.619Z,639.00
2023-01-13T01:58:46.576Z,639.15
2023-01-13T01:58:57.545Z,639.09
2023-01-13T01:59:08.612Z,639.21
2023-01-13T01:59:19.593Z,639.19
2023-01-13T01:59:30.566Z,639.20
2023-01-13T01:59:41.631Z,639.17
2023-01-13T01:59:52.589Z,639.26
2023-01-13T02:00:03.565Z,638.95
2023-01-13T02:00:14.534Z,638.81
2023-01-13T02:00:25.605Z,639.31
2023-01-13T02:00:36.621Z,639.22
2023-01-13T02:00:48.597Z,639.23
2023-01-13T02:00:59.740Z,639.08
2023-01-13T02:01:11.755Z,639.32
2023-01-13T02:01:23.626Z,639.38
2023-01-13T02:01:34.650Z,639.05
2023-01-13T02:01:45.738Z,639.12
2023-01-13T02:01:56.633Z,639.25
2023-01-13T02:02:07.727Z,639.03
2023-01-13T02:02:18.567Z,638.68
2023-01-13T02:02:30.641Z,639.46
2023-01-13T02:02:41.609Z,639.58
2023-01-13T02:02:53.586Z,639.69
2023-01-13T02:03:04.549Z,639.31
2023-01-13T02:03:15.614Z,639.76
2023-01-13T02:03:26.581Z,639.64
2023-01-13T02:03:37.557Z,639.28
2023-01-13T02:03:48.624Z,639.50
2023-01-13T02:03:59.595Z,639.24
2023-01-13T02:04:10.572Z,639.19
2023-01-13T02:04:21.536Z,639.38
2023-01-13T02:04:32.600Z,639.64
2023-01-13T02:04:43.563Z,639.55
2023-01-13T02:04:54.621Z,639.98
2023-01-13T02:05:06.541Z,639.81
2023-01-13T02:05:17.615Z,639.77
2023-01-13T02:05:28.588Z,639.45
2023-01-13T02:05:39.582Z,639.53
2023-01-13T02:05:50.571Z,639.25
2023-01-13T02:06:01.534Z,639.24
2023-01-13T02:06:12.609Z,639.56
2023-01-13T02:06:23.573Z,639.34
2023-01-13T02:06:34.545Z,639.25
2023-01-13T02:06:45.615Z,639.19
2023-01-13T02:06:56.585Z,639.27
2023-01-13T02:07:07.569Z,639.25
2023-01-13T02:07:18.536Z,639.54
2023-01-13T02:07:29.603Z,639.72
2023-01-13T02:07:40.573Z,639.69
2023-01-13T02:07:51.632Z,639.80
2023-01-13T02:08:03.562Z,639.58
2023-01-13T02:08:14.539Z,639.65
2023-01-13T02:08:25.597Z,639.64
2023-01-13T02:08:36.561Z,639.06
2023-01-13T02:08:47.631Z,639.71
2023-01-13T02:08:58.599Z,640.17
2023-01-13T02:09:09.569Z,639.91
2023-01-13T02:09:20.629Z,639.97
2023-01-13T02:09:32.542Z,639.74
2023-01-13T02:09:43.615Z,639.47
2023-01-13T02:09:54.559Z,639.47
2023-01-13T02:10:06.588Z,639.49
2023-01-13T02:10:17.561Z,639.63
2023-01-13T02:10:28.533Z,639.70
2023-01-13T02:10:39.594Z,639.55
2023-01-13T02:10:50.552Z,639.66
2023-01-13T02:11:01.618Z,639.60
2023-01-13T02:11:13.632Z,639.93
2023-01-13T02:11:24.593Z,640.16
2023-01-13T02:11:35.560Z,639.94
2023-01-13T02:11:46.623Z,639.52
2023-01-13T02:11:58.537Z,639.53
2023-01-13T02:12:10.562Z,639.95
2023-01-13T02:12:21.543Z,640.05
2023-01-13T02:12:32.760Z,640.07
2023-01-13T02:12:43.585Z,639.69
2023-01-13T02:12:54.539Z,639.66
2023-01-13T02:13:05.614Z,640.04
2023-01-13T02:13:16.572Z,640.32
2023-01-13T02:13:27.539Z,640.37
2023-01-13T02:13:38.622Z,640.05
2023-01-13T02:13:49.587Z,640.17
2023-01-13T02:14:00.555Z,640.15
2023-01-13T02:14:11.620Z,639.98
2023-01-13T02:14:23.559Z,640.00
2023-01-13T02:14:34.656Z,639.84
2023-01-13T02:14:46.579Z,639.54
2023-01-13T02:14:58.595Z,639.85
2023-01-13T02:15:09.605Z,640.02
2023-01-13T02:15:20.562Z,639.91
2023-01-13T02:15:31.545Z,639.93
2023-01-13T02:15:42.616Z,640.34
2023-01-13T02:15:53.584Z,640.38
2023-01-13T02:16:04.599Z,640.37
2023-01-13T02:16:15.644Z,640.19
2023-01-13T02:16:27.656Z,640.31
2023-01-13T02:16:39.609Z,640.01
2023-01-13T02:16:50.580Z,639.86
2023-01-13T02:17:01.546Z,639.95
2023-01-13T02:17:12.536Z,640.41
2023-01-13T02:17:23.595Z,640.28
2023-01-13T02:17:34.571Z,640.15
2023-01-13T02:17:45.639Z,640.24
2023-01-13T02:17:57.573Z,640.15
2023-01-13T02:18:08.630Z,640.27
2023-01-13T02:18:20.569Z,640.47
2023-01-13T02:18:31.634Z,640.14
2023-01-13T02:18:42.595Z,640.83
2023-01-13T02:18:53.552Z,640.54
2023-01-13T02:19:04.611Z,640.36
2023-01-13T02:19:15.597Z,640.49
2023-01-13T02:19:26.547Z,640.50
2023-01-13T02:19:38.559Z,640.54
2023-01-13T02:19:49.620Z,640.36